createdAt,value
2023-05-17T00:02:13.861Z,11.10
2023-05-17T00:04:42.533Z,11.10
2023-05-17T00:07:11.265Z,11.10
2023-05-17T00:09:39.954Z,11.10
2023-05-17T00:12:08.955Z,11.00
2023-05-17T00:14:39.037Z,11.00
2023-05-17T00:17:07.736Z,11.00
2023-05-17T00:19:36.492Z,10.90
2023-05-17T00:22:05.489Z,10.90
2023-05-17T00:24:34.077Z,10.90
2023-05-17T00:27:02.706Z,10.90
2023-05-17T00:29:31.362Z,10.90
2023-05-17T00:32:01.421Z,10.90
2023-05-17T00:34:30.077Z,10.80
2023-05-17T00:36:58.695Z,10.70
2023-05-17T00:39:27.380Z,10.60
2023-05-17T00:41:56.280Z,10.50
2023-05-17T00:44:24.914Z,10.40
2023-05-17T00:46:53.527Z,10.40
2023-05-17T00:49:23.573Z,10.30
2023-05-17T00:51:52.694Z,10.30
2023-05-17T00:54:21.437Z,10.30
2023-05-17T00:56:50.452Z,10.30
2023-05-17T00:59:19.230Z,10.30
2023-05-17T01:01:48.766Z,10.30
2023-05-17T01:04:17.605Z,10.30
2023-05-17T01:06:47.689Z,10.30
2023-05-17T01:09:16.714Z,10.40
2023-05-17T01:11:55.397Z,10.30
2023-05-17T01:14:39.564Z,10.30
2023-05-17T01:17:15.290Z,10.10
2023-05-17T01:19:56.231Z,10.00
2023-05-17T01:22:37.574Z,10.00
2023-05-17T01:25:18.834Z,9.90
2023-05-17T01:27:54.077Z,9.80
2023-05-17T01:30:26.928Z,9.80
2023-05-17T01:32:59.012Z,9.70
2023-05-17T01:35:28.259Z,9.70
2023-05-17T01:37:57.154Z,9.60
2023-05-17T01:40:26.173Z,9.50
2023-05-17T01:43:04.076Z,9.50
2023-05-17T01:45:39.785Z,9.40
2023-05-17T01:48:16.720Z,9.40
2023-05-17T01:50:51.108Z,9.40
2023-05-17T01:53:26.584Z,9.40
2023-05-17T01:55:58.791Z,9.40
2023-05-17T01:58:31.869Z,9.40
2023-05-17T02:01:03.012Z,9.40
2023-05-17T02:03:31.751Z,9.40
2023-05-17T02:06:00.417Z,9.40
2023-05-17T02:08:29.176Z,9.40
2023-05-17T02:10:58.892Z,9.30
2023-05-17T02:13:28.962Z,9.40
2023-05-17T02:16:01.631Z,9.30
2023-05-17T02:18:30.891Z,9.30
2023-05-17T02:20:59.536Z,9.30
2023-05-17T02:23:28.393Z,9.30
2023-05-17T02:25:57.087Z,9.30
2023-05-17T02:28:25.858Z,9.30
2023-05-17T02:30:56.641Z,9.30
2023-05-17T02:33:25.473Z,9.30
2023-05-17T02:35:54.128Z,9.30
2023-05-17T02:38:22.743Z,9.30
2023-05-17T02:40:51.410Z,9.30
2023-05-17T02:43:20.009Z,9.30
2023-05-17T02:45:48.567Z,9.30
2023-05-17T02:48:18.677Z,9.40
2023-05-17T02:50:47.966Z,9.40
2023-05-17T02:53:16.707Z,9.40
2023-05-17T02:55:45.422Z,9.40
2023-05-17T02:58:15.063Z,9.40
2023-05-17T03:00:47.030Z,9.40
2023-05-17T03:03:18.598Z,9.50
2023-05-17T03:05:47.340Z,9.50
2023-05-17T03:08:16.127Z,9.50
2023-05-17T03:10:46.445Z,9.50
2023-05-17T03:13:15.241Z,9.50
2023-05-17T03:15:44.113Z,9.50
2023-05-17T03:18:13.068Z,9.50
2023-05-17T03:20:43.770Z,9.50
2023-05-17T03:23:12.567Z,9.60
2023-05-17T03:25:56.244Z,9.50
2023-05-17T03:28:25.197Z,9.60
2023-05-17T03:30:54.651Z,9.60
2023-05-17T03:33:23.849Z,9.60
2023-05-17T03:35:54.123Z,9.60
2023-05-17T03:38:23.359Z,9.60
2023-05-17T03:40:53.472Z,9.60
2023-05-17T03:43:22.851Z,9.60
2023-05-17T03:45:52.217Z,9.60
2023-05-17T03:48:20.903Z,9.60
2023-05-17T03:50:49.554Z,9.60
2023-05-17T03:53:20.671Z,9.60
2023-05-17T03:55:49.396Z,9.60
2023-05-17T03:58:19.692Z,9.60
2023-05-17T04:00:48.497Z,9.60
2023-05-17T04:03:20.413Z,9.60
2023-05-17T04:05:49.667Z,9.60
2023-05-17T04:08:20.572Z,9.70
2023-05-17T04:10:49.206Z,9.60
2023-05-17T04:13:17.972Z,9.70
2023-05-17T04:15:47.734Z,9.70
2023-05-17T04:18:16.562Z,9.70
2023-05-17T04:20:45.274Z,9.70
2023-05-17T04:23:14.104Z,9.70
2023-05-17T04:25:45.406Z,9.70
2023-05-17T04:28:14.226Z,9.70
2023-05-17T04:30:43.917Z,9.60
2023-05-17T04:33:14.423Z,9.60
2023-05-17T04:35:43.940Z,9.60
2023-05-17T04:38:12.573Z,9.60
2023-05-17T04:40:43.141Z,9.60
2023-05-17T04:43:13.309Z,9.60
2023-05-17T04:45:44.017Z,9.60
2023-05-17T04:48:13.196Z,9.60
2023-05-17T04:50:42.015Z,9.60
2023-05-17T04:53:12.010Z,9.60
2023-05-17T04:55:41.065Z,9.60
2023-05-17T04:58:10.578Z,9.60
2023-05-17T05:00:41.917Z,9.60
2023-05-17T05:03:12.426Z,9.60
2023-05-17T05:05:41.720Z,9.60
2023-05-17T05:08:12.349Z,9.60
2023-05-17T05:10:41.205Z,9.60
2023-05-17T05:13:11.351Z,9.60
2023-05-17T05:15:42.094Z,9.70
2023-05-17T05:18:10.813Z,9.70
2023-05-17T05:20:40.457Z,9.70
2023-05-17T05:23:09.482Z,9.60
2023-05-17T05:25:40.115Z,9.70
2023-05-17T05:28:08.849Z,9.70
2023-05-17T05:30:41.992Z,9.70
2023-05-17T05:33:10.829Z,9.70
2023-05-17T05:35:40.484Z,9.70
2023-05-17T05:38:09.459Z,9.70
2023-05-17T05:40:38.324Z,9.70
2023-05-17T05:43:07.106Z,9.70
2023-05-17T05:45:47.400Z,9.70
2023-05-17T05:48:16.548Z,9.70
2023-05-17T05:50:46.025Z,9.70
2023-05-17T05:53:19.449Z,9.70
2023-05-17T05:55:53.890Z,9.70
2023-05-17T05:58:22.931Z,9.70
2023-05-17T06:00:54.003Z,9.70
2023-05-17T06:03:22.708Z,9.70
2023-05-17T06:05:51.653Z,9.70
2023-05-17T06:08:20.320Z,9.70
2023-05-17T06:10:49.368Z,9.70
2023-05-17T06:13:17.993Z,9.70
2023-05-17T06:15:46.860Z,9.70
2023-05-17T06:18:17.037Z,9.60
2023-05-17T06:20:45.872Z,9.70
2023-05-17T06:23:16.877Z,9.60
2023-05-17T06:25:45.508Z,9.60
2023-05-17T06:28:14.184Z,9.60
2023-05-17T06:30:50.294Z,9.60
2023-05-17T06:33:20.448Z,9.50
2023-05-17T06:38:23.286Z,9.40
2023-05-17T06:40:53.983Z,9.40
2023-05-17T06:43:22.924Z,9.40
2023-05-17T06:45:52.281Z,9.40
2023-05-17T06:48:22.448Z,9.30
2023-05-17T06:50:51.269Z,9.30
2023-05-17T06:53:19.960Z,9.30
2023-05-17T06:55:48.771Z,9.30
2023-05-17T06:58:17.458Z,9.30
2023-05-17T07:30:44.548Z,9.00
2023-05-17T07:33:14.678Z,9.10
2023-05-17T07:35:43.425Z,9.00
2023-05-17T07:38:12.136Z,9.00
2023-05-17T07:40:40.887Z,9.00
2023-05-17T07:43:09.519Z,9.00
2023-05-17T07:45:45.077Z,9.00
2023-05-17T07:48:15.391Z,9.00
2023-05-17T07:50:44.399Z,9.00
2023-05-17T07:53:13.028Z,9.00
2023-05-17T07:55:42.655Z,9.10
2023-05-17T07:58:12.139Z,9.20
2023-05-17T08:00:43.272Z,9.10
2023-05-17T08:03:12.042Z,9.00
2023-05-17T08:05:42.131Z,9.00
2023-05-17T08:08:13.685Z,9.00
2023-05-17T08:10:43.369Z,9.00
2023-05-17T08:13:12.083Z,9.00
2023-05-17T08:15:40.854Z,9.10
2023-05-17T08:18:09.620Z,9.10
2023-05-17T08:20:38.737Z,9.10
2023-05-17T08:23:08.831Z,9.10
2023-05-17T08:25:37.537Z,9.10
2023-05-17T08:28:06.309Z,9.10
2023-05-17T08:30:35.027Z,9.20
2023-05-17T08:33:03.755Z,9.20
2023-05-17T08:35:32.674Z,9.20
2023-05-17T08:38:01.468Z,9.20
2023-05-17T08:40:32.533Z,9.20
2023-05-17T08:43:02.803Z,9.30
2023-05-17T08:45:33.032Z,9.30
2023-05-17T08:48:02.223Z,9.40
2023-05-17T08:50:32.277Z,9.40
2023-05-17T08:53:01.431Z,9.50
2023-05-17T08:55:34.350Z,9.50
2023-05-17T08:58:04.151Z,9.40
2023-05-17T09:00:33.513Z,9.50
2023-05-17T09:03:02.338Z,9.50
2023-05-17T09:05:31.254Z,9.40
2023-05-17T09:08:01.601Z,9.50
2023-05-17T09:10:32.152Z,9.50
2023-05-17T09:13:00.799Z,9.50
2023-05-17T09:15:31.115Z,9.40
2023-05-17T09:18:00.166Z,9.40
2023-05-17T09:20:34.313Z,9.40
2023-05-17T09:23:04.211Z,9.40
2023-05-17T09:25:34.407Z,9.50
2023-05-17T09:28:04.582Z,9.40
2023-05-17T09:30:38.157Z,9.50
2023-05-17T09:33:08.291Z,9.50
2023-05-17T09:35:37.998Z,9.50
2023-05-17T09:38:08.667Z,9.50
2023-05-17T09:40:41.890Z,9.60
2023-05-17T09:43:12.108Z,9.60
2023-05-17T09:45:41.342Z,9.50
2023-05-17T09:48:14.852Z,9.60
2023-05-17T09:50:47.564Z,9.60
2023-05-17T09:53:27.260Z,9.60
2023-05-17T09:55:58.858Z,9.60
2023-05-17T09:58:28.993Z,9.60
2023-05-17T10:01:01.743Z,9.60
2023-05-17T10:03:33.513Z,9.60
2023-05-17T10:06:04.046Z,9.60
2023-05-17T10:08:33.985Z,9.60
2023-05-17T10:11:07.966Z,9.70
2023-05-17T10:13:42.002Z,9.70
2023-05-17T10:16:11.765Z,9.60
2023-05-17T10:18:41.913Z,9.60
2023-05-17T10:21:10.940Z,9.60
2023-05-17T10:23:42.262Z,9.70
2023-05-17T10:26:14.500Z,9.80
2023-05-17T10:28:44.091Z,9.70
2023-05-17T10:31:13.847Z,9.70
2023-05-17T10:33:44.466Z,9.70
2023-05-17T10:36:15.451Z,9.70
2023-05-17T10:38:44.255Z,9.80
2023-05-17T10:41:16.225Z,9.80
2023-05-17T10:43:46.018Z,9.90
2023-05-17T10:46:18.004Z,9.90
2023-05-17T10:48:48.858Z,9.90
2023-05-17T10:51:24.094Z,9.90
2023-05-17T10:54:12.775Z,9.90
2023-05-17T10:56:53.824Z,9.80
2023-05-17T10:59:24.162Z,9.90
2023-05-17T11:01:55.466Z,9.80
2023-05-17T11:04:26.271Z,9.80
2023-05-17T11:06:57.355Z,9.90
2023-05-17T11:09:26.317Z,9.90
2023-05-17T11:12:10.009Z,9.90
2023-05-17T11:14:49.070Z,10.00
2023-05-17T11:17:18.994Z,10.00
2023-05-17T11:19:56.769Z,10.00
2023-05-17T11:22:25.985Z,10.00
2023-05-17T11:24:57.783Z,10.00
2023-05-17T11:27:28.981Z,9.90
2023-05-17T11:29:58.565Z,9.90
2023-05-17T11:32:30.550Z,9.90
2023-05-17T12:04:30.634Z,10.10
2023-05-17T12:07:01.391Z,10.20
2023-05-17T12:09:30.410Z,10.20
2023-05-17T12:12:00.061Z,10.20
2023-05-17T12:14:28.725Z,10.10
2023-05-17T12:17:00.061Z,10.10
2023-05-17T12:19:32.701Z,10.20
2023-05-17T12:22:09.526Z,10.20
2023-05-17T12:24:39.417Z,10.30
2023-05-17T12:27:08.577Z,10.30
2023-05-17T12:29:37.436Z,10.30
2023-05-17T12:32:08.971Z,10.40
2023-05-17T12:34:39.554Z,10.40
2023-05-17T12:37:11.026Z,10.30
2023-05-17T12:39:41.093Z,10.40
2023-05-17T12:42:10.825Z,10.40
2023-05-17T12:44:40.328Z,10.40
2023-05-17T12:47:11.409Z,10.30
2023-05-17T12:49:52.845Z,10.30
2023-05-17T12:52:21.448Z,10.30
2023-05-17T12:54:50.495Z,10.30
2023-05-17T12:57:20.244Z,10.40
2023-05-17T12:59:50.475Z,10.40
2023-05-17T13:02:20.932Z,10.40
2023-05-17T13:04:51.589Z,10.50
2023-05-17T13:07:25.081Z,10.50
2023-05-17T13:09:54.181Z,10.50
2023-05-17T13:12:25.152Z,10.60
2023-05-17T13:14:55.016Z,10.60
2023-05-17T13:17:27.385Z,10.70
2023-05-17T13:19:58.347Z,10.70
2023-05-17T13:22:28.117Z,10.80
2023-05-17T13:24:56.914Z,10.80
2023-05-17T13:27:25.615Z,10.80
2023-05-17T13:29:54.244Z,10.80
2023-05-17T13:32:23.080Z,10.80
2023-05-17T13:34:51.848Z,10.90
2023-05-17T13:37:22.354Z,11.00
2023-05-17T13:39:51.126Z,11.00
2023-05-17T13:42:20.259Z,11.10
2023-05-17T13:44:50.121Z,11.10
2023-05-17T13:47:18.906Z,11.20
2023-05-17T13:49:47.621Z,11.20
2023-05-17T13:52:18.689Z,11.10
2023-05-17T13:54:48.775Z,11.10
2023-05-17T13:57:18.405Z,11.20
2023-05-17T13:59:47.068Z,11.20
2023-05-17T14:02:15.722Z,11.20
2023-05-17T14:04:44.470Z,11.30
2023-05-17T14:07:13.480Z,11.30
2023-05-17T14:09:42.772Z,11.30
2023-05-17T14:12:24.318Z,11.30
2023-05-17T14:14:53.024Z,11.30
2023-05-17T14:17:21.676Z,11.30
2023-05-17T14:19:50.445Z,11.30
2023-05-17T14:22:19.191Z,11.30
2023-05-17T14:24:47.897Z,11.30
2023-05-17T14:27:16.943Z,11.30
2023-05-17T14:29:46.917Z,11.30
2023-05-17T14:32:15.706Z,11.30
2023-05-17T14:34:44.407Z,11.40
2023-05-17T14:37:14.135Z,11.40
2023-05-17T14:39:49.467Z,11.40
2023-05-17T14:58:48.871Z,11.60
2023-05-17T15:01:17.713Z,11.60
2023-05-17T15:03:46.543Z,11.60
2023-05-17T15:06:15.483Z,11.60
2023-05-17T15:08:44.203Z,11.60
2023-05-17T15:11:12.876Z,11.60
2023-05-17T15:13:41.609Z,11.70
2023-05-17T15:16:12.226Z,11.70
2023-05-17T15:18:40.890Z,11.70
2023-05-17T15:21:09.533Z,11.70
2023-05-17T15:23:38.525Z,11.70
2023-05-17T15:26:07.181Z,11.70
2023-05-17T15:28:35.963Z,11.80
2023-05-17T15:31:08.375Z,11.80
2023-05-17T15:33:39.577Z,11.80
2023-05-17T15:36:09.753Z,11.80
2023-05-17T15:38:39.888Z,11.70
2023-05-17T15:41:14.362Z,11.60
2023-05-17T15:43:43.611Z,11.60
2023-05-17T15:46:12.834Z,11.60
2023-05-17T17:16:25.994Z,11.00
2023-05-17T17:18:54.771Z,11.00
2023-05-17T17:21:23.954Z,11.00
2023-05-17T17:23:52.850Z,11.00
2023-05-17T17:26:22.139Z,11.00
2023-05-17T17:28:50.863Z,11.00
2023-05-17T17:31:19.556Z,11.00
2023-05-17T17:33:49.774Z,10.90
2023-05-17T17:36:18.423Z,10.90
2023-05-17T17:38:47.151Z,10.90
2023-05-17T17:41:15.794Z,10.90
2023-05-17T17:43:47.034Z,10.80
2023-05-17T17:46:15.684Z,10.80
2023-05-17T17:48:44.404Z,10.80
2023-05-17T17:54:27.035Z,10.80
2023-05-17T17:56:56.010Z,10.80
2023-05-17T17:59:24.792Z,10.70
2023-05-17T18:01:53.510Z,10.70
2023-05-17T18:04:22.322Z,10.70
2023-05-17T18:06:51.089Z,10.70
2023-05-17T18:09:20.446Z,10.70
2023-05-17T18:11:50.798Z,10.60
2023-05-17T18:14:22.163Z,10.60
2023-05-17T18:16:50.969Z,10.60
2023-05-17T18:35:19.479Z,10.40
2023-05-17T18:37:48.237Z,10.40
2023-05-17T18:40:17.022Z,10.40
2023-05-17T18:42:45.884Z,10.40
2023-05-17T18:45:17.405Z,10.40
2023-05-17T18:48:14.158Z,10.40
2023-05-17T18:50:44.266Z,10.40
2023-05-17T18:53:13.115Z,10.40
2023-05-17T18:55:42.229Z,10.40
2023-05-17T18:58:10.943Z,10.40
2023-05-17T19:00:39.601Z,10.40
2023-05-17T19:03:08.267Z,10.40
2023-05-17T19:05:36.950Z,10.40
2023-05-17T19:08:07.198Z,10.40
2023-05-17T19:10:35.928Z,10.40
2023-05-17T19:13:06.678Z,10.40
2023-05-17T19:15:35.457Z,10.40
2023-05-17T19:18:04.155Z,10.40
2023-05-17T19:20:33.672Z,10.40
2023-05-17T19:23:02.437Z,10.30
2023-05-17T19:25:32.452Z,10.30
2023-05-17T19:28:01.162Z,10.30
2023-05-17T19:30:32.613Z,10.30
2023-05-17T19:33:01.805Z,10.30
2023-05-17T19:35:30.723Z,10.20
2023-05-17T19:37:59.818Z,10.20
2023-05-17T19:40:28.856Z,10.20
2023-05-17T19:42:59.046Z,10.20
2023-05-17T19:45:27.695Z,10.20
2023-05-17T19:47:56.678Z,10.20
2023-05-17T19:50:25.676Z,10.20
2023-05-17T19:52:54.900Z,10.20
2023-05-17T19:55:25.066Z,10.20
2023-05-17T19:57:54.039Z,10.20
2023-05-17T20:00:24.072Z,10.20
2023-05-17T20:02:52.807Z,10.20
2023-05-17T20:05:21.841Z,10.10
2023-05-17T20:07:50.433Z,10.10
2023-05-17T20:10:19.106Z,10.10
2023-05-17T20:12:48.532Z,10.10
2023-05-17T20:15:18.698Z,10.10
2023-05-17T20:17:48.923Z,10.10
2023-05-17T20:20:17.839Z,10.10
2023-05-17T20:22:46.537Z,10.10
2023-05-17T20:25:15.235Z,10.10
2023-05-17T20:27:45.112Z,10.10
2023-05-17T20:30:14.387Z,10.00
2023-05-17T20:32:43.124Z,10.00
2023-05-17T20:35:13.221Z,10.00
2023-05-17T20:37:41.884Z,10.00
2023-05-17T20:40:11.611Z,10.00
2023-05-17T20:42:40.438Z,9.90
2023-05-17T20:45:11.146Z,9.90
2023-05-17T20:47:41.321Z,9.90
2023-05-17T20:50:14.239Z,9.80
2023-05-17T20:52:43.358Z,9.90
2023-05-17T20:55:12.103Z,9.90
2023-05-17T20:57:40.758Z,9.90
2023-05-17T21:00:12.097Z,9.90
2023-05-17T21:02:40.973Z,9.90
2023-05-17T21:05:10.953Z,9.90
2023-05-17T21:07:41.028Z,10.00
2023-05-17T21:10:10.913Z,9.90
2023-05-17T21:12:39.629Z,9.90
2023-05-17T21:15:17.177Z,9.90
2023-05-17T21:17:46.158Z,9.80
2023-05-17T21:20:15.018Z,9.80
2023-05-17T21:22:45.985Z,9.80
2023-05-17T21:25:14.759Z,9.80
2023-05-17T21:27:43.557Z,9.80
2023-05-17T21:30:12.744Z,9.70
2023-05-17T21:32:41.464Z,9.80
2023-05-17T21:35:10.415Z,9.80
2023-05-17T21:37:40.216Z,9.80
2023-05-17T21:40:11.057Z,9.80
2023-05-17T21:42:40.108Z,9.80
2023-05-17T21:45:09.638Z,9.80
2023-05-17T21:47:38.397Z,9.80
2023-05-17T21:50:07.817Z,9.80
2023-05-17T21:52:36.477Z,9.80
2023-05-17T21:55:06.167Z,9.80
2023-05-17T21:57:37.541Z,9.80
2023-05-17T22:00:08.001Z,9.70
2023-05-17T22:02:37.423Z,9.70
2023-05-17T22:05:07.210Z,9.70
2023-05-17T22:07:36.667Z,9.70
2023-05-17T22:10:08.816Z,9.70
2023-05-17T22:12:41.034Z,9.60
2023-05-17T22:15:11.080Z,9.60
2023-05-17T22:17:51.029Z,9.60
2023-05-17T22:20:23.907Z,9.60
2023-05-17T22:22:52.785Z,9.60
2023-05-17T22:25:21.426Z,9.50
2023-05-17T22:27:51.774Z,9.50
2023-05-17T22:30:20.409Z,9.50
2023-05-17T22:32:49.012Z,9.50
2023-05-17T22:35:17.660Z,9.60
2023-05-17T22:37:46.209Z,9.60
2023-05-17T22:40:15.082Z,9.60
2023-05-17T22:42:45.009Z,9.60
2023-05-17T22:45:15.523Z,9.60
2023-05-17T22:47:44.202Z,9.70
2023-05-17T22:50:13.726Z,9.70
2023-05-17T22:52:42.813Z,9.70
2023-05-17T22:55:11.884Z,9.70
2023-05-17T22:57:40.546Z,9.70
2023-05-17T23:00:11.597Z,9.70
2023-05-17T23:02:41.874Z,9.70
2023-05-17T23:05:11.278Z,9.60
2023-05-17T23:07:41.541Z,9.60
2023-05-17T23:10:11.724Z,9.60
2023-05-17T23:12:40.777Z,9.60
2023-05-17T23:15:10.655Z,9.60
2023-05-17T23:17:44.463Z,9.60
2023-05-17T23:20:14.031Z,9.60
2023-05-17T23:22:42.647Z,9.60
2023-05-17T23:25:11.568Z,9.60
2023-05-17T23:27:40.182Z,9.60
2023-05-17T23:30:09.689Z,9.50
2023-05-17T23:32:38.365Z,9.50
2023-05-17T23:35:09.243Z,9.50
2023-05-17T23:37:38.280Z,9.50
2023-05-17T23:40:09.505Z,9.40
2023-05-17T23:42:38.145Z,9.40
2023-05-17T23:45:08.093Z,9.40
2023-05-17T23:47:41.051Z,9.40
2023-05-17T23:50:12.277Z,9.40
2023-05-17T23:52:40.909Z,9.30
2023-05-17T23:55:10.376Z,9.30
2023-05-17T23:57:40.073Z,9.30
